sensor_id;sensor_type;location;lat;lon;timestamp;P1;durP1;ratioP1;P2;durP2;ratioP2
50976;SDS011;36992;48.200;12.418;2024-01-07T00:01:37;1.67;;;0.90;;
50976;SDS011;36992;48.200;12.418;2024-01-07T00:04:04;1.73;;;0.80;;
50976;SDS011;36992;48.200;12.418;2024-01-07T00:06:30;1.85;;;0.85;;
50976;SDS011;36992;48.200;12.418;2024-01-07T00:08:57;1.83;;;0.65;;
50976;SDS011;36992;48.200;12.418;2024-01-07T00:11:23;1.40;;;0.80;;
50976;SDS011;36992;48.200;12.418;2024-01-07T00:13:52;1.73;;;0.88;;
50976;SDS011;36992;48.200;12.418;2024-01-07T00:16:18;1.67;;;0.70;;
50976;SDS011;36992;48.200;12.418;2024-01-07T00:18:44;1.45;;;0.70;;
50976;SDS011;36992;48.200;12.418;2024-01-07T00:21:11;1.77;;;0.98;;
50976;SDS011;36992;48.200;12.418;2024-01-07T00:23:37;3.17;;;0.95;;
50976;SDS011;36992;48.200;12.418;2024-01-07T00:26:04;1.25;;;0.75;;
50976;SDS011;36992;48.200;12.418;2024-01-07T00:28:31;1.52;;;0.75;;
50976;SDS011;36992;48.200;12.418;2024-01-07T00:33:54;1.48;;;0.63;;
50976;SDS011;36992;48.200;12.418;2024-01-07T00:36:20;1.42;;;0.70;;
50976;SDS011;36992;48.200;12.418;2024-01-07T00:38:47;2.58;;;0.63;;
50976;SDS011;36992;48.200;12.418;2024-01-07T00:41:13;1.70;;;0.90;;
50976;SDS011;36992;48.200;12.418;2024-01-07T00:43:40;1.25;;;0.68;;
50976;SDS011;36992;48.200;12.418;2024-01-07T00:46:07;1.70;;;0.88;;
50976;SDS011;36992;48.200;12.418;2024-01-07T00:48:35;2.28;;;1.00;;
50976;SDS011;36992;48.200;12.418;2024-01-07T00:51:03;1.33;;;0.52;;
50976;SDS011;36992;48.200;12.418;2024-01-07T00:53:45;1.52;;;0.90;;
50976;SDS011;36992;48.200;12.418;2024-01-07T00:56:11;2.10;;;1.02;;
50976;SDS011;36992;48.200;12.418;2024-01-07T00:58:38;1.58;;;0.60;;
50976;SDS011;36992;48.200;12.418;2024-01-07T01:01:05;1.27;;;0.60;;
50976;SDS011;36992;48.200;12.418;2024-01-07T01:03:32;1.38;;;0.70;;
50976;SDS011;36992;48.200;12.418;2024-01-07T01:06:03;1.35;;;0.60;;
50976;SDS011;36992;48.200;12.418;2024-01-07T01:08:30;1.23;;;0.60;;
50976;SDS011;36992;48.200;12.418;2024-01-07T01:10:57;1.38;;;0.80;;
50976;SDS011;36992;48.200;12.418;2024-01-07T01:13:23;1.52;;;0.65;;
50976;SDS011;36992;48.200;12.418;2024-01-07T01:15:50;1.55;;;0.70;;
50976;SDS011;36992;48.200;12.418;2024-01-07T01:18:17;1.27;;;0.70;;
50976;SDS011;36992;48.200;12.418;2024-01-07T01:20:43;1.67;;;0.90;;
50976;SDS011;36992;48.200;12.418;2024-01-07T01:23:11;1.17;;;0.50;;
50976;SDS011;36992;48.200;12.418;2024-01-07T01:25:38;1.92;;;1.15;;
50976;SDS011;36992;48.200;12.418;2024-01-07T01:28:05;2.42;;;1.10;;
50976;SDS011;36992;48.200;12.418;2024-01-07T01:30:31;1.70;;;1.27;;
50976;SDS011;36992;48.200;12.418;2024-01-07T01:32:58;1.67;;;0.80;;
50976;SDS011;36992;48.200;12.418;2024-01-07T01:35:24;2.22;;;1.00;;
50976;SDS011;36992;48.200;12.418;2024-01-07T01:37:51;2.63;;;0.95;;
50976;SDS011;36992;48.200;12.418;2024-01-07T01:40:20;1.45;;;0.70;;
50976;SDS011;36992;48.200;12.418;2024-01-07T01:42:47;1.13;;;0.77;;
50976;SDS011;36992;48.200;12.418;2024-01-07T01:45:14;2.20;;;1.10;;
50976;SDS011;36992;48.200;12.418;2024-01-07T01:47:40;1.73;;;0.77;;
50976;SDS011;36992;48.200;12.418;2024-01-07T01:50:07;1.90;;;0.80;;
50976;SDS011;36992;48.200;12.418;2024-01-07T01:52:34;1.92;;;0.90;;
50976;SDS011;36992;48.200;12.418;2024-01-07T01:55:01;1.48;;;0.60;;
50976;SDS011;36992;48.200;12.418;2024-01-07T01:57:33;1.88;;;0.80;;
50976;SDS011;36992;48.200;12.418;2024-01-07T02:00:01;1.65;;;1.00;;
50976;SDS011;36992;48.200;12.418;2024-01-07T02:02:29;1.15;;;0.52;;
50976;SDS011;36992;48.200;12.418;2024-01-07T02:04:59;1.73;;;0.57;;
50976;SDS011;36992;48.200;12.418;2024-01-07T02:07:26;1.52;;;0.70;;
50976;SDS011;36992;48.200;12.418;2024-01-07T02:09:54;1.40;;;0.73;;
50976;SDS011;36992;48.200;12.418;2024-01-07T02:12:20;2.08;;;1.10;;
50976;SDS011;36992;48.200;12.418;2024-01-07T02:14:48;2.38;;;0.75;;
50976;SDS011;36992;48.200;12.418;2024-01-07T02:17:15;2.00;;;0.70;;
50976;SDS011;36992;48.200;12.418;2024-01-07T02:19:44;1.23;;;0.60;;
50976;SDS011;36992;48.200;12.418;2024-01-07T02:22:11;1.65;;;0.68;;
50976;SDS011;36992;48.200;12.418;2024-01-07T02:24:39;1.52;;;0.70;;
50976;SDS011;36992;48.200;12.418;2024-01-07T02:27:05;1.67;;;0.90;;
50976;SDS011;36992;48.200;12.418;2024-01-07T02:29:32;2.00;;;1.00;;
50976;SDS011;36992;48.200;12.418;2024-01-07T02:31:58;1.63;;;0.70;;
50976;SDS011;36992;48.200;12.418;2024-01-07T02:34:24;1.90;;;0.95;;
50976;SDS011;36992;48.200;12.418;2024-01-07T02:36:51;1.70;;;0.82;;
50976;SDS011;36992;48.200;12.418;2024-01-07T02:39:18;1.98;;;1.08;;
50976;SDS011;36992;48.200;12.418;2024-01-07T02:41:47;2.17;;;1.13;;
50976;SDS011;36992;48.200;12.418;2024-01-07T02:44:16;2.60;;;1.48;;
50976;SDS011;36992;48.200;12.418;2024-01-07T02:46:43;1.90;;;0.90;;
50976;SDS011;36992;48.200;12.418;2024-01-07T02:49:14;1.80;;;0.90;;
50976;SDS011;36992;48.200;12.418;2024-01-07T02:51:41;1.63;;;0.80;;
50976;SDS011;36992;48.200;12.418;2024-01-07T02:54:14;1.17;;;0.80;;
50976;SDS011;36992;48.200;12.418;2024-01-07T02:56:43;1.60;;;0.70;;
50976;SDS011;36992;48.200;12.418;2024-01-07T02:59:20;1.67;;;0.82;;
50976;SDS011;36992;48.200;12.418;2024-01-07T03:01:52;1.70;;;0.93;;
50976;SDS011;36992;48.200;12.418;2024-01-07T03:04:33;1.67;;;0.82;;
50976;SDS011;36992;48.200;12.418;2024-01-07T03:06:59;1.85;;;0.80;;
50976;SDS011;36992;48.200;12.418;2024-01-07T03:09:26;1.85;;;0.95;;
50976;SDS011;36992;48.200;12.418;2024-01-07T03:11:52;1.75;;;0.70;;
50976;SDS011;36992;48.200;12.418;2024-01-07T03:14:21;2.33;;;1.05;;
50976;SDS011;36992;48.200;12.418;2024-01-07T03:16:48;1.95;;;1.00;;
50976;SDS011;36992;48.200;12.418;2024-01-07T03:19:14;2.55;;;0.80;;
50976;SDS011;36992;48.200;12.418;2024-01-07T03:21:41;1.45;;;0.90;;
50976;SDS011;36992;48.200;12.418;2024-01-07T03:24:07;1.40;;;0.70;;
50976;SDS011;36992;48.200;12.418;2024-01-07T03:26:34;3.83;;;1.52;;
50976;SDS011;36992;48.200;12.418;2024-01-07T03:29:01;2.53;;;1.10;;
50976;SDS011;36992;48.200;12.418;2024-01-07T03:31:29;2.20;;;1.33;;
50976;SDS011;36992;48.200;12.418;2024-01-07T03:33:56;3.03;;;1.55;;
50976;SDS011;36992;48.200;12.418;2024-01-07T03:36:23;1.52;;;0.73;;
50976;SDS011;36992;48.200;12.418;2024-01-07T03:38:49;1.92;;;1.02;;
50976;SDS011;36992;48.200;12.418;2024-01-07T03:41:16;1.88;;;0.95;;
50976;SDS011;36992;48.200;12.418;2024-01-07T03:43:44;1.60;;;0.60;;
50976;SDS011;36992;48.200;12.418;2024-01-07T03:46:10;1.83;;;0.90;;
50976;SDS011;36992;48.200;12.418;2024-01-07T03:48:38;1.92;;;0.93;;
50976;SDS011;36992;48.200;12.418;2024-01-07T03:51:05;1.65;;;0.80;;
50976;SDS011;36992;48.200;12.418;2024-01-07T03:53:32;1.70;;;0.80;;
50976;SDS011;36992;48.200;12.418;2024-01-07T03:56:01;2.17;;;0.90;;
50976;SDS011;36992;48.200;12.418;2024-01-07T03:58:28;1.92;;;0.82;;
50976;SDS011;36992;48.200;12.418;2024-01-07T04:00:54;2.20;;;1.20;;
50976;SDS011;36992;48.200;12.418;2024-01-07T04:03:22;3.58;;;1.80;;
50976;SDS011;36992;48.200;12.418;2024-01-07T04:05:50;3.05;;;1.10;;
50976;SDS011;36992;48.200;12.418;2024-01-07T04:08:16;3.03;;;1.30;;
50976;SDS011;36992;48.200;12.418;2024-01-07T04:10:43;2.50;;;1.58;;
50976;SDS011;36992;48.200;12.418;2024-01-07T04:13:10;1.77;;;1.00;;
50976;SDS011;36992;48.200;12.418;2024-01-07T04:15:37;2.25;;;1.08;;
50976;SDS011;36992;48.200;12.418;2024-01-07T04:18:04;2.13;;;1.13;;
50976;SDS011;36992;48.200;12.418;2024-01-07T04:20:33;2.08;;;1.23;;
50976;SDS011;36992;48.200;12.418;2024-01-07T04:23:01;1.70;;;0.85;;
50976;SDS011;36992;48.200;12.418;2024-01-07T04:25:32;2.83;;;1.40;;
50976;SDS011;36992;48.200;12.418;2024-01-07T04:28:01;1.77;;;0.80;;
50976;SDS011;36992;48.200;12.418;2024-01-07T04:30:30;2.13;;;1.20;;
50976;SDS011;36992;48.200;12.418;2024-01-07T04:32:56;2.45;;;1.13;;
50976;SDS011;36992;48.200;12.418;2024-01-07T04:35:23;1.90;;;1.00;;
50976;SDS011;36992;48.200;12.418;2024-01-07T04:37:57;2.85;;;1.38;;
50976;SDS011;36992;48.200;12.418;2024-01-07T04:40:31;2.50;;;1.20;;
50976;SDS011;36992;48.200;12.418;2024-01-07T04:43:01;2.17;;;1.05;;
50976;SDS011;36992;48.200;12.418;2024-01-07T04:45:31;2.20;;;1.38;;
50976;SDS011;36992;48.200;12.418;2024-01-07T04:48:04;1.58;;;0.70;;
50976;SDS011;36992;48.200;12.418;2024-01-07T04:50:36;1.85;;;1.00;;
50976;SDS011;36992;48.200;12.418;2024-01-07T04:53:06;1.92;;;0.93;;
50976;SDS011;36992;48.200;12.418;2024-01-07T04:55:48;2.05;;;0.98;;
50976;SDS011;36992;48.200;12.418;2024-01-07T04:58:22;2.78;;;1.40;;
50976;SDS011;36992;48.200;12.418;2024-01-07T05:01:07;1.90;;;0.73;;
50976;SDS011;36992;48.200;12.418;2024-01-07T05:03:56;1.75;;;0.98;;
50976;SDS011;36992;48.200;12.418;2024-01-07T05:06:41;2.00;;;0.85;;
50976;SDS011;36992;48.200;12.418;2024-01-07T05:09:19;1.70;;;0.98;;
50976;SDS011;36992;48.200;12.418;2024-01-07T05:15:34;1.67;;;0.90;;
50976;SDS011;36992;48.200;12.418;2024-01-07T05:21:05;2.05;;;0.80;;
50976;SDS011;36992;48.200;12.418;2024-01-07T05:23:41;1.15;;;0.50;;
50976;SDS011;36992;48.200;12.418;2024-01-07T05:26:28;1.45;;;0.68;;
50976;SDS011;36992;48.200;12.418;2024-01-07T05:29:07;1.58;;;0.77;;
50976;SDS011;36992;48.200;12.418;2024-01-07T05:31:48;1.48;;;0.70;;
50976;SDS011;36992;48.200;12.418;2024-01-07T05:34:22;2.03;;;0.75;;
50976;SDS011;36992;48.200;12.418;2024-01-07T05:36:56;2.08;;;1.05;;
50976;SDS011;36992;48.200;12.418;2024-01-07T05:39:41;1.90;;;0.80;;
50976;SDS011;36992;48.200;12.418;2024-01-07T05:42:21;1.65;;;0.98;;
50976;SDS011;36992;48.200;12.418;2024-01-07T05:44:54;2.63;;;1.23;;
50976;SDS011;36992;48.200;12.418;2024-01-07T05:47:33;2.10;;;1.08;;
50976;SDS011;36992;48.200;12.418;2024-01-07T05:50:05;1.75;;;1.00;;
50976;SDS011;36992;48.200;12.418;2024-01-07T05:52:38;2.95;;;1.17;;
50976;SDS011;36992;48.200;12.418;2024-01-07T05:55:16;1.88;;;1.08;;
50976;SDS011;36992;48.200;12.418;2024-01-07T05:57:55;1.70;;;0.88;;
50976;SDS011;36992;48.200;12.418;2024-01-07T06:00:33;2.38;;;1.10;;
50976;SDS011;36992;48.200;12.418;2024-01-07T06:03:09;2.22;;;1.13;;
50976;SDS011;36992;48.200;12.418;2024-01-07T06:05:40;2.22;;;1.02;;
50976;SDS011;36992;48.200;12.418;2024-01-07T06:08:17;2.53;;;1.10;;
50976;SDS011;36992;48.200;12.418;2024-01-07T06:10:44;2.05;;;0.80;;
50976;SDS011;36992;48.200;12.418;2024-01-07T06:13:13;2.53;;;1.10;;
50976;SDS011;36992;48.200;12.418;2024-01-07T06:15:45;2.00;;;1.00;;
50976;SDS011;36992;48.200;12.418;2024-01-07T06:18:13;2.03;;;0.98;;
50976;SDS011;36992;48.200;12.418;2024-01-07T06:20:40;2.20;;;1.10;;
50976;SDS011;36992;48.200;12.418;2024-01-07T06:23:10;2.67;;;1.25;;
50976;SDS011;36992;48.200;12.418;2024-01-07T06:25:40;2.25;;;1.02;;
50976;SDS011;36992;48.200;12.418;2024-01-07T06:28:06;2.25;;;1.10;;
50976;SDS011;36992;48.200;12.418;2024-01-07T06:30:37;2.45;;;1.20;;
50976;SDS011;36992;48.200;12.418;2024-01-07T06:33:04;2.28;;;1.00;;
50976;SDS011;36992;48.200;12.418;2024-01-07T06:35:35;2.20;;;1.30;;
50976;SDS011;36992;48.200;12.418;2024-01-07T06:38:09;3.00;;;1.48;;
50976;SDS011;36992;48.200;12.418;2024-01-07T06:40:45;2.88;;;1.60;;
50976;SDS011;36992;48.200;12.418;2024-01-07T06:43:27;1.88;;;1.02;;
50976;SDS011;36992;48.200;12.418;2024-01-07T06:45:57;2.33;;;1.20;;
50976;SDS011;36992;48.200;12.418;2024-01-07T06:48:23;2.65;;;1.17;;
50976;SDS011;36992;48.200;12.418;2024-01-07T06:53:53;1.95;;;0.80;;
50976;SDS011;36992;48.200;12.418;2024-01-07T06:56:38;3.03;;;0.75;;
50976;SDS011;36992;48.200;12.418;2024-01-07T06:59:18;2.85;;;1.35;;
50976;SDS011;36992;48.200;12.418;2024-01-07T07:01:52;2.15;;;0.90;;
50976;SDS011;36992;48.200;12.418;2024-01-07T07:04:31;2.92;;;1.15;;
50976;SDS011;36992;48.200;12.418;2024-01-07T07:07:09;3.42;;;0.90;;
50976;SDS011;36992;48.200;12.418;2024-01-07T07:09:49;2.17;;;0.85;;
50976;SDS011;36992;48.200;12.418;2024-01-07T07:12:22;2.00;;;0.82;;
50976;SDS011;36992;48.200;12.418;2024-01-07T07:15:02;1.90;;;0.70;;
50976;SDS011;36992;48.200;12.418;2024-01-07T07:17:38;2.35;;;0.95;;
50976;SDS011;36992;48.200;12.418;2024-01-07T07:20:11;1.85;;;0.93;;
50976;SDS011;36992;48.200;12.418;2024-01-07T07:22:54;1.95;;;0.90;;
50976;SDS011;36992;48.200;12.418;2024-01-07T07:25:29;2.45;;;1.10;;
50976;SDS011;36992;48.200;12.418;2024-01-07T07:27:56;2.28;;;0.93;;
50976;SDS011;36992;48.200;12.418;2024-01-07T07:30:27;2.03;;;0.82;;
50976;SDS011;36992;48.200;12.418;2024-01-07T07:33:02;2.97;;;1.45;;
50976;SDS011;36992;48.200;12.418;2024-01-07T07:35:34;1.80;;;0.75;;
50976;SDS011;36992;48.200;12.418;2024-01-07T07:38:27;2.85;;;1.67;;
50976;SDS011;36992;48.200;12.418;2024-01-07T07:41:00;3.00;;;0.93;;
50976;SDS011;36992;48.200;12.418;2024-01-07T07:43:42;2.65;;;0.98;;
50976;SDS011;36992;48.200;12.418;2024-01-07T07:49:46;1.95;;;1.05;;
50976;SDS011;36992;48.200;12.418;2024-01-07T07:52:57;2.95;;;1.15;;
50976;SDS011;36992;48.200;12.418;2024-01-07T07:55:51;2.95;;;0.75;;
50976;SDS011;36992;48.200;12.418;2024-01-07T07:58:40;2.55;;;1.10;;
50976;SDS011;36992;48.200;12.418;2024-01-07T08:04:28;1.98;;;1.10;;
50976;SDS011;36992;48.200;12.418;2024-01-07T08:07:26;2.58;;;1.15;;
50976;SDS011;36992;48.200;12.418;2024-01-07T08:10:32;2.20;;;1.10;;
50976;SDS011;36992;48.200;12.418;2024-01-07T08:16:46;2.50;;;0.90;;
50976;SDS011;36992;48.200;12.418;2024-01-07T08:19:47;2.55;;;1.20;;
50976;SDS011;36992;48.200;12.418;2024-01-07T08:22:30;3.90;;;1.45;;
50976;SDS011;36992;48.200;12.418;2024-01-07T08:26:03;2.70;;;1.00;;
50976;SDS011;36992;48.200;12.418;2024-01-07T08:28:36;2.97;;;1.15;;
50976;SDS011;36992;48.200;12.418;2024-01-07T08:31:24;4.05;;;1.27;;
50976;SDS011;36992;48.200;12.418;2024-01-07T08:34:23;2.70;;;1.50;;
50976;SDS011;36992;48.200;12.418;2024-01-07T08:40:00;3.10;;;1.20;;
50976;SDS011;36992;48.200;12.418;2024-01-07T08:46:04;2.50;;;1.05;;
50976;SDS011;36992;48.200;12.418;2024-01-07T08:48:54;3.83;;;1.60;;
50976;SDS011;36992;48.200;12.418;2024-01-07T08:54:57;3.38;;;1.13;;
50976;SDS011;36992;48.200;12.418;2024-01-07T08:57:31;2.70;;;1.25;;
50976;SDS011;36992;48.200;12.418;2024-01-07T09:00:03;3.83;;;1.98;;
50976;SDS011;36992;48.200;12.418;2024-01-07T09:03:09;2.80;;;1.20;;
50976;SDS011;36992;48.200;12.418;2024-01-07T09:09:59;2.75;;;1.58;;
50976;SDS011;36992;48.200;12.418;2024-01-07T09:12:51;2.72;;;1.15;;
50976;SDS011;36992;48.200;12.418;2024-01-07T09:15:55;4.50;;;1.52;;
50976;SDS011;36992;48.200;12.418;2024-01-07T09:19:05;3.30;;;1.40;;
50976;SDS011;36992;48.200;12.418;2024-01-07T09:22:23;3.67;;;1.73;;
50976;SDS011;36992;48.200;12.418;2024-01-07T09:25:01;4.22;;;1.90;;
50976;SDS011;36992;48.200;12.418;2024-01-07T09:28:03;6.00;;;2.95;;
50976;SDS011;36992;48.200;12.418;2024-01-07T09:33:43;4.75;;;2.05;;
50976;SDS011;36992;48.200;12.418;2024-01-07T09:34:32;6.47;;;2.38;;
50976;SDS011;36992;48.200;12.418;2024-01-07T09:38:49;8.80;;;3.88;;
50976;SDS011;36992;48.200;12.418;2024-01-07T09:41:02;6.32;;;3.85;;
50976;SDS011;36992;48.200;12.418;2024-01-07T09:50:43;4.63;;;2.47;;
50976;SDS011;36992;48.200;12.418;2024-01-07T09:53:46;4.85;;;2.65;;
50976;SDS011;36992;48.200;12.418;2024-01-07T09:57:00;4.55;;;2.47;;
50976;SDS011;36992;48.200;12.418;2024-01-07T10:14:00;4.72;;;2.30;;
50976;SDS011;36992;48.200;12.418;2024-01-07T10:16:27;4.60;;;2.15;;
50976;SDS011;36992;48.200;12.418;2024-01-07T10:18:57;4.47;;;2.05;;
50976;SDS011;36992;48.200;12.418;2024-01-07T10:21:27;4.47;;;1.92;;
50976;SDS011;36992;48.200;12.418;2024-01-07T10:24:08;4.80;;;2.05;;
50976;SDS011;36992;48.200;12.418;2024-01-07T10:26:38;4.68;;;2.28;;
50976;SDS011;36992;48.200;12.418;2024-01-07T10:29:13;3.33;;;1.73;;
50976;SDS011;36992;48.200;12.418;2024-01-07T10:31:58;3.15;;;1.67;;
50976;SDS011;36992;48.200;12.418;2024-01-07T10:34:48;3.88;;;2.00;;
50976;SDS011;36992;48.200;12.418;2024-01-07T10:37:42;3.53;;;1.80;;
50976;SDS011;36992;48.200;12.418;2024-01-07T10:40:16;4.28;;;1.85;;
50976;SDS011;36992;48.200;12.418;2024-01-07T10:45:50;3.08;;;1.65;;
50976;SDS011;36992;48.200;12.418;2024-01-07T10:48:31;2.70;;;1.20;;
50976;SDS011;36992;48.200;12.418;2024-01-07T10:52:00;4.18;;;2.00;;
50976;SDS011;36992;48.200;12.418;2024-01-07T10:54:40;3.78;;;1.75;;
50976;SDS011;36992;48.200;12.418;2024-01-07T10:57:19;4.93;;;2.55;;
50976;SDS011;36992;48.200;12.418;2024-01-07T10:59:59;4.00;;;2.40;;
50976;SDS011;36992;48.200;12.418;2024-01-07T11:02:40;3.80;;;2.05;;
50976;SDS011;36992;48.200;12.418;2024-01-07T11:05:47;3.53;;;1.60;;
50976;SDS011;36992;48.200;12.418;2024-01-07T11:08:21;4.22;;;1.83;;
50976;SDS011;36992;48.200;12.418;2024-01-07T11:11:02;4.68;;;2.35;;
50976;SDS011;36992;48.200;12.418;2024-01-07T11:16:57;3.85;;;2.15;;
50976;SDS011;36992;48.200;12.418;2024-01-07T11:19:32;4.72;;;2.30;;
50976;SDS011;36992;48.200;12.418;2024-01-07T11:22:29;3.95;;;1.77;;
50976;SDS011;36992;48.200;12.418;2024-01-07T11:25:03;3.83;;;2.08;;
50976;SDS011;36992;48.200;12.418;2024-01-07T11:28:16;8.98;;;2.95;;
50976;SDS011;36992;48.200;12.418;2024-01-07T11:30:44;3.75;;;2.20;;
50976;SDS011;36992;48.200;12.418;2024-01-07T11:33:14;4.60;;;1.95;;
50976;SDS011;36992;48.200;12.418;2024-01-07T11:35:55;3.35;;;1.65;;
50976;SDS011;36992;48.200;12.418;2024-01-07T11:38:22;3.97;;;2.03;;
50976;SDS011;36992;48.200;12.418;2024-01-07T11:40:49;6.18;;;3.55;;
50976;SDS011;36992;48.200;12.418;2024-01-07T11:43:16;3.92;;;1.67;;
50976;SDS011;36992;48.200;12.418;2024-01-07T11:45:43;4.45;;;1.92;;
50976;SDS011;36992;48.200;12.418;2024-01-07T11:48:10;4.30;;;2.08;;
50976;SDS011;36992;48.200;12.418;2024-01-07T11:50:36;3.08;;;1.58;;
50976;SDS011;36992;48.200;12.418;2024-01-07T11:53:05;3.70;;;1.80;;
50976;SDS011;36992;48.200;12.418;2024-01-07T11:55:31;4.00;;;1.48;;
50976;SDS011;36992;48.200;12.418;2024-01-07T11:58:00;4.32;;;1.80;;
50976;SDS011;36992;48.200;12.418;2024-01-07T12:00:27;2.92;;;1.67;;
50976;SDS011;36992;48.200;12.418;2024-01-07T12:02:53;5.43;;;2.63;;
50976;SDS011;36992;48.200;12.418;2024-01-07T12:05:20;4.03;;;2.08;;
50976;SDS011;36992;48.200;12.418;2024-01-07T12:07:46;4.55;;;1.88;;
50976;SDS011;36992;48.200;12.418;2024-01-07T12:10:14;3.60;;;1.90;;
50976;SDS011;36992;48.200;12.418;2024-01-07T12:12:42;5.85;;;2.65;;
50976;SDS011;36992;48.200;12.418;2024-01-07T12:15:10;4.20;;;2.35;;
50976;SDS011;36992;48.200;12.418;2024-01-07T12:17:37;6.13;;;2.55;;
50976;SDS011;36992;48.200;12.418;2024-01-07T12:20:04;4.20;;;2.20;;
50976;SDS011;36992;48.200;12.418;2024-01-07T12:22:32;5.28;;;2.50;;
50976;SDS011;36992;48.200;12.418;2024-01-07T12:24:59;6.57;;;2.47;;
50976;SDS011;36992;48.200;12.418;2024-01-07T12:27:28;5.70;;;2.55;;
50976;SDS011;36992;48.200;12.418;2024-01-07T12:29:55;7.88;;;3.67;;
50976;SDS011;36992;48.200;12.418;2024-01-07T12:32:22;7.03;;;3.20;;
50976;SDS011;36992;48.200;12.418;2024-01-07T12:34:48;10.20;;;4.72;;
50976;SDS011;36992;48.200;12.418;2024-01-07T12:37:15;6.32;;;2.80;;
50976;SDS011;36992;48.200;12.418;2024-01-07T12:39:41;5.68;;;2.30;;
50976;SDS011;36992;48.200;12.418;2024-01-07T12:42:08;9.82;;;4.05;;
50976;SDS011;36992;48.200;12.418;2024-01-07T12:44:37;3.90;;;1.98;;
50976;SDS011;36992;48.200;12.418;2024-01-07T12:47:03;3.75;;;1.75;;
50976;SDS011;36992;48.200;12.418;2024-01-07T12:49:30;3.53;;;1.70;;
50976;SDS011;36992;48.200;12.418;2024-01-07T12:51:57;3.50;;;1.70;;
50976;SDS011;36992;48.200;12.418;2024-01-07T12:54:23;4.07;;;1.58;;
50976;SDS011;36992;48.200;12.418;2024-01-07T12:56:50;3.47;;;1.52;;
50976;SDS011;36992;48.200;12.418;2024-01-07T12:59:17;3.25;;;1.77;;
50976;SDS011;36992;48.200;12.418;2024-01-07T13:01:44;3.50;;;1.73;;
50976;SDS011;36992;48.200;12.418;2024-01-07T13:04:11;4.38;;;1.98;;
50976;SDS011;36992;48.200;12.418;2024-01-07T13:06:38;3.08;;;1.95;;
50976;SDS011;36992;48.200;12.418;2024-01-07T13:09:04;3.65;;;1.23;;
50976;SDS011;36992;48.200;12.418;2024-01-07T13:11:31;3.78;;;2.00;;
50976;SDS011;36992;48.200;12.418;2024-01-07T13:13:58;4.22;;;1.83;;
50976;SDS011;36992;48.200;12.418;2024-01-07T13:16:26;4.13;;;1.73;;
50976;SDS011;36992;48.200;12.418;2024-01-07T13:18:54;3.40;;;1.75;;
50976;SDS011;36992;48.200;12.418;2024-01-07T13:21:21;2.45;;;1.42;;
50976;SDS011;36992;48.200;12.418;2024-01-07T13:23:48;3.10;;;1.50;;
50976;SDS011;36992;48.200;12.418;2024-01-07T13:26:15;3.42;;;1.88;;
50976;SDS011;36992;48.200;12.418;2024-01-07T13:28:42;4.15;;;2.22;;
50976;SDS011;36992;48.200;12.418;2024-01-07T13:31:08;3.72;;;2.00;;
50976;SDS011;36992;48.200;12.418;2024-01-07T13:33:37;3.58;;;1.95;;
50976;SDS011;36992;48.200;12.418;2024-01-07T13:36:05;2.70;;;1.30;;
50976;SDS011;36992;48.200;12.418;2024-01-07T13:38:34;4.28;;;1.20;;
50976;SDS011;36992;48.200;12.418;2024-01-07T13:41:03;2.97;;;1.20;;
50976;SDS011;36992;48.200;12.418;2024-01-07T13:43:30;2.88;;;1.10;;
50976;SDS011;36992;48.200;12.418;2024-01-07T13:45:56;2.75;;;1.40;;
50976;SDS011;36992;48.200;12.418;2024-01-07T13:48:23;2.90;;;0.82;;
50976;SDS011;36992;48.200;12.418;2024-01-07T13:50:50;3.17;;;1.30;;
50976;SDS011;36992;48.200;12.418;2024-01-07T13:53:20;2.75;;;1.20;;
50976;SDS011;36992;48.200;12.418;2024-01-07T13:55:47;3.50;;;1.50;;
50976;SDS011;36992;48.200;12.418;2024-01-07T13:58:14;3.22;;;1.38;;
50976;SDS011;36992;48.200;12.418;2024-01-07T14:00:41;3.33;;;1.20;;
50976;SDS011;36992;48.200;12.418;2024-01-07T14:03:07;2.58;;;1.30;;
50976;SDS011;36992;48.200;12.418;2024-01-07T14:05:34;2.58;;;1.02;;
50976;SDS011;36992;48.200;12.418;2024-01-07T14:08:00;5.05;;;2.72;;
50976;SDS011;36992;48.200;12.418;2024-01-07T14:10:28;5.68;;;2.70;;
50976;SDS011;36992;48.200;12.418;2024-01-07T14:12:55;4.22;;;2.53;;
50976;SDS011;36992;48.200;12.418;2024-01-07T14:15:22;3.72;;;1.42;;
50976;SDS011;36992;48.200;12.418;2024-01-07T14:17:48;2.80;;;1.30;;
50976;SDS011;36992;48.200;12.418;2024-01-07T14:20:15;4.20;;;1.95;;
50976;SDS011;36992;48.200;12.418;2024-01-07T14:22:41;3.00;;;1.45;;
50976;SDS011;36992;48.200;12.418;2024-01-07T14:25:08;3.03;;;1.40;;
50976;SDS011;36992;48.200;12.418;2024-01-07T14:27:36;3.30;;;1.55;;
50976;SDS011;36992;48.200;12.418;2024-01-07T14:30:03;4.22;;;2.03;;
50976;SDS011;36992;48.200;12.418;2024-01-07T14:32:30;3.17;;;1.08;;
50976;SDS011;36992;48.200;12.418;2024-01-07T14:34:58;2.03;;;0.75;;
50976;SDS011;36992;48.200;12.418;2024-01-07T14:37:24;1.80;;;0.70;;
50976;SDS011;36992;48.200;12.418;2024-01-07T14:39:53;2.85;;;1.00;;
50976;SDS011;36992;48.200;12.418;2024-01-07T14:42:19;1.95;;;0.95;;
50976;SDS011;36992;48.200;12.418;2024-01-07T14:44:47;3.22;;;1.10;;
50976;SDS011;36992;48.200;12.418;2024-01-07T14:47:15;2.67;;;1.15;;
50976;SDS011;36992;48.200;12.418;2024-01-07T14:49:42;1.77;;;0.80;;
50976;SDS011;36992;48.200;12.418;2024-01-07T14:52:09;1.92;;;0.85;;
50976;SDS011;36992;48.200;12.418;2024-01-07T14:54:35;2.28;;;0.93;;
50976;SDS011;36992;48.200;12.418;2024-01-07T14:57:02;2.33;;;0.98;;
50976;SDS011;36992;48.200;12.418;2024-01-07T14:59:29;2.42;;;0.90;;
50976;SDS011;36992;48.200;12.418;2024-01-07T15:01:57;2.65;;;1.20;;
50976;SDS011;36992;48.200;12.418;2024-01-07T15:04:24;2.70;;;1.20;;
50976;SDS011;36992;48.200;12.418;2024-01-07T15:06:50;4.13;;;1.25;;
50976;SDS011;36992;48.200;12.418;2024-01-07T15:09:17;3.83;;;0.98;;
50976;SDS011;36992;48.200;12.418;2024-01-07T15:11:46;1.73;;;0.73;;
50976;SDS011;36992;48.200;12.418;2024-01-07T15:14:14;2.25;;;1.00;;
50976;SDS011;36992;48.200;12.418;2024-01-07T15:16:43;2.78;;;0.70;;
50976;SDS011;36992;48.200;12.418;2024-01-07T15:19:12;1.70;;;0.73;;
50976;SDS011;36992;48.200;12.418;2024-01-07T15:21:38;1.90;;;0.90;;
50976;SDS011;36992;48.200;12.418;2024-01-07T15:24:05;2.83;;;1.20;;
50976;SDS011;36992;48.200;12.418;2024-01-07T15:26:32;3.53;;;1.25;;
50976;SDS011;36992;48.200;12.418;2024-01-07T15:29:00;1.92;;;0.75;;
50976;SDS011;36992;48.200;12.418;2024-01-07T15:31:27;2.83;;;1.40;;
50976;SDS011;36992;48.200;12.418;2024-01-07T15:33:54;1.85;;;0.88;;
50976;SDS011;36992;48.200;12.418;2024-01-07T15:36:22;1.80;;;0.70;;
50976;SDS011;36992;48.200;12.418;2024-01-07T15:38:48;3.13;;;1.10;;
50976;SDS011;36992;48.200;12.418;2024-01-07T15:41:15;2.47;;;0.80;;
50976;SDS011;36992;48.200;12.418;2024-01-07T15:43:41;1.83;;;0.82;;
50976;SDS011;36992;48.200;12.418;2024-01-07T15:46:08;2.88;;;0.88;;
50976;SDS011;36992;48.200;12.418;2024-01-07T15:48:36;1.75;;;0.70;;
50976;SDS011;36992;48.200;12.418;2024-01-07T15:51:02;3.00;;;1.02;;
50976;SDS011;36992;48.200;12.418;2024-01-07T15:53:31;2.42;;;1.13;;
50976;SDS011;36992;48.200;12.418;2024-01-07T15:55:59;3.63;;;1.48;;
50976;SDS011;36992;48.200;12.418;2024-01-07T15:58:27;2.72;;;1.25;;
50976;SDS011;36992;48.200;12.418;2024-01-07T16:00:56;2.58;;;1.23;;
50976;SDS011;36992;48.200;12.418;2024-01-07T16:03:23;2.80;;;1.25;;
50976;SDS011;36992;48.200;12.418;2024-01-07T16:05:50;2.83;;;1.30;;
50976;SDS011;36992;48.200;12.418;2024-01-07T16:08:16;2.85;;;1.10;;
50976;SDS011;36992;48.200;12.418;2024-01-07T16:10:45;3.35;;;1.80;;